Terminal Aerodrome Forecast
Issued by NWS Wilmington, OH

Current Version | Previous Version | Text Only | Print | Product List | Glossary Off
Versions: 1 2 3 4 5 6 7 8 9 10 11 12 13 14 15 16 17 18

000
FTUS41 KILN 201700
TAFDAY
TAF
KDAY 201720Z 2018/2118 09006KT P6SM SCT020 BKN035
     FM210600 VRB02KT 2SM BR SCT020
     FM211300 06006KT P6SM SCT025=

USA.gov is the U.S. government's official web portal to all federal, state and local government web resources and services.